sensor_id;sensor_type;location;lat;lon;timestamp;pressure;altitude;pressure_sealevel;temperature;humidity
20023;BME280;10172;42.054;24.546;2023-04-24T00:00:54;98007.91;;;9.80;100.00
20023;BME280;10172;42.054;24.546;2023-04-24T00:03:22;98001.50;;;10.45;100.00
20023;BME280;10172;42.054;24.546;2023-04-24T00:05:48;98004.72;;;10.38;100.00
20023;BME280;10172;42.054;24.546;2023-04-24T00:08:13;97998.16;;;10.67;100.00
20023;BME280;10172;42.054;24.546;2023-04-24T00:10:39;98000.00;;;9.40;100.00
20023;BME280;10172;42.054;24.546;2023-04-24T00:13:05;97985.94;;;8.86;100.00
20023;BME280;10172;42.054;24.546;2023-04-24T00:15:30;97990.31;;;8.47;100.00
20023;BME280;10172;42.054;24.546;2023-04-24T00:17:56;97981.03;;;9.20;100.00
20023;BME280;10172;42.054;24.546;2023-04-24T00:20:22;97997.88;;;9.58;100.00
20023;BME280;10172;42.054;24.546;2023-04-24T00:22:47;98000.28;;;9.36;100.00
20023;BME280;10172;42.054;24.546;2023-04-24T00:25:13;97989.75;;;9.86;100.00
20023;BME280;10172;42.054;24.546;2023-04-24T00:27:38;97979.94;;;9.74;100.00
20023;BME280;10172;42.054;24.546;2023-04-24T00:30:04;97992.38;;;9.99;100.00
20023;BME280;10172;42.054;24.546;2023-04-24T00:32:30;97976.22;;;10.27;100.00
20023;BME280;10172;42.054;24.546;2023-04-24T00:34:55;97980.88;;;10.49;100.00
20023;BME280;10172;42.054;24.546;2023-04-24T00:37:21;97991.94;;;11.03;100.00
20023;BME280;10172;42.054;24.546;2023-04-24T00:39:46;97985.72;;;10.18;100.00
20023;BME280;10172;42.054;24.546;2023-04-24T00:42:12;97969.09;;;9.52;100.00
20023;BME280;10172;42.054;24.546;2023-04-24T00:44:38;97970.06;;;9.89;100.00
20023;BME280;10172;42.054;24.546;2023-04-24T00:47:03;97964.63;;;8.61;100.00
20023;BME280;10172;42.054;24.546;2023-04-24T00:49:29;97977.09;;;9.77;100.00
20023;BME280;10172;42.054;24.546;2023-04-24T00:51:55;97974.31;;;9.66;100.00
20023;BME280;10172;42.054;24.546;2023-04-24T00:54:22;97977.72;;;9.43;100.00
20023;BME280;10172;42.054;24.546;2023-04-24T00:56:47;97984.09;;;9.78;100.00
20023;BME280;10172;42.054;24.546;2023-04-24T00:59:16;97999.47;;;9.09;100.00
20023;BME280;10172;42.054;24.546;2023-04-24T01:01:41;97994.53;;;8.90;100.00
20023;BME280;10172;42.054;24.546;2023-04-24T01:04:08;98006.16;;;9.01;100.00
20023;BME280;10172;42.054;24.546;2023-04-24T01:06:40;97998.56;;;8.00;100.00
20023;BME280;10172;42.054;24.546;2023-04-24T01:09:08;98008.50;;;7.96;100.00
20023;BME280;10172;42.054;24.546;2023-04-24T01:11:37;98008.09;;;8.45;100.00
20023;BME280;10172;42.054;24.546;2023-04-24T01:14:02;97997.63;;;9.23;100.00
20023;BME280;10172;42.054;24.546;2023-04-24T01:16:28;97993.88;;;9.78;100.00
20023;BME280;10172;42.054;24.546;2023-04-24T01:18:53;97991.78;;;9.18;100.00
20023;BME280;10172;42.054;24.546;2023-04-24T01:21:20;98001.47;;;9.44;100.00
20023;BME280;10172;42.054;24.546;2023-04-24T01:23:46;97998.94;;;9.43;100.00
20023;BME280;10172;42.054;24.546;2023-04-24T01:26:15;98007.00;;;9.41;100.00
20023;BME280;10172;42.054;24.546;2023-04-24T01:28:41;97985.78;;;9.02;100.00
20023;BME280;10172;42.054;24.546;2023-04-24T01:31:07;97979.75;;;9.13;100.00
20023;BME280;10172;42.054;24.546;2023-04-24T01:33:33;97990.53;;;8.97;100.00
20023;BME280;10172;42.054;24.546;2023-04-24T01:35:58;97994.63;;;9.15;100.00
20023;BME280;10172;42.054;24.546;2023-04-24T01:38:24;97976.22;;;9.77;100.00
20023;BME280;10172;42.054;24.546;2023-04-24T01:40:50;97995.00;;;8.96;100.00
20023;BME280;10172;42.054;24.546;2023-04-24T01:43:16;97986.81;;;8.04;100.00
20023;BME280;10172;42.054;24.546;2023-04-24T01:45:42;97980.06;;;8.55;100.00
20023;BME280;10172;42.054;24.546;2023-04-24T01:48:07;97975.28;;;8.19;100.00
20023;BME280;10172;42.054;24.546;2023-04-24T01:50:33;97952.19;;;8.07;100.00
20023;BME280;10172;42.054;24.546;2023-04-24T01:52:58;97951.34;;;7.92;100.00
20023;BME280;10172;42.054;24.546;2023-04-24T01:55:24;97960.63;;;8.27;100.00
20023;BME280;10172;42.054;24.546;2023-04-24T01:57:52;97970.66;;;8.08;100.00
20023;BME280;10172;42.054;24.546;2023-04-24T02:00:17;97943.34;;;8.49;100.00
20023;BME280;10172;42.054;24.546;2023-04-24T02:02:43;97965.34;;;8.63;100.00
20023;BME280;10172;42.054;24.546;2023-04-24T02:05:09;97937.53;;;8.15;100.00
20023;BME280;10172;42.054;24.546;2023-04-24T02:07:35;97952.31;;;7.77;100.00
20023;BME280;10172;42.054;24.546;2023-04-24T02:10:00;97954.00;;;8.34;100.00
20023;BME280;10172;42.054;24.546;2023-04-24T02:12:26;97955.03;;;8.04;100.00
20023;BME280;10172;42.054;24.546;2023-04-24T02:14:51;97926.00;;;7.88;100.00
20023;BME280;10172;42.054;24.546;2023-04-24T02:17:17;97932.44;;;8.53;100.00
20023;BME280;10172;42.054;24.546;2023-04-24T02:19:44;97926.81;;;9.49;100.00
20023;BME280;10172;42.054;24.546;2023-04-24T02:22:09;97923.84;;;9.28;100.00
20023;BME280;10172;42.054;24.546;2023-04-24T02:24:36;97921.59;;;9.85;100.00
20023;BME280;10172;42.054;24.546;2023-04-24T02:27:01;97934.94;;;10.34;100.00
20023;BME280;10172;42.054;24.546;2023-04-24T02:29:28;97932.56;;;9.55;100.00
20023;BME280;10172;42.054;24.546;2023-04-24T02:31:53;97909.28;;;9.34;100.00
20023;BME280;10172;42.054;24.546;2023-04-24T02:34:19;97922.59;;;8.55;100.00
20023;BME280;10172;42.054;24.546;2023-04-24T02:36:44;97911.16;;;7.57;100.00
20023;BME280;10172;42.054;24.546;2023-04-24T02:39:10;97939.78;;;8.35;100.00
20023;BME280;10172;42.054;24.546;2023-04-24T02:41:35;97935.81;;;8.28;100.00
20023;BME280;10172;42.054;24.546;2023-04-24T02:44:01;97933.50;;;9.29;100.00
20023;BME280;10172;42.054;24.546;2023-04-24T02:46:26;97948.72;;;9.40;100.00
20023;BME280;10172;42.054;24.546;2023-04-24T02:48:52;97932.97;;;8.85;100.00
20023;BME280;10172;42.054;24.546;2023-04-24T02:51:17;97925.09;;;9.10;100.00
20023;BME280;10172;42.054;24.546;2023-04-24T02:53:43;97936.97;;;9.05;100.00
20023;BME280;10172;42.054;24.546;2023-04-24T02:56:08;97928.91;;;8.67;100.00
20023;BME280;10172;42.054;24.546;2023-04-24T02:58:37;97934.34;;;7.96;100.00
20023;BME280;10172;42.054;24.546;2023-04-24T03:01:03;97922.22;;;8.74;100.00
20023;BME280;10172;42.054;24.546;2023-04-24T03:03:28;97944.31;;;8.19;100.00
20023;BME280;10172;42.054;24.546;2023-04-24T03:05:54;97931.84;;;8.21;100.00
20023;BME280;10172;42.054;24.546;2023-04-24T03:08:20;97940.19;;;8.83;100.00
20023;BME280;10172;42.054;24.546;2023-04-24T03:10:46;97948.19;;;8.69;100.00
20023;BME280;10172;42.054;24.546;2023-04-24T03:13:11;97959.72;;;9.21;100.00
20023;BME280;10172;42.054;24.546;2023-04-24T03:15:37;97955.94;;;9.88;100.00
20023;BME280;10172;42.054;24.546;2023-04-24T03:18:02;97961.09;;;10.40;100.00
20023;BME280;10172;42.054;24.546;2023-04-24T03:20:28;97967.19;;;10.90;100.00
20023;BME280;10172;42.054;24.546;2023-04-24T03:22:53;97967.59;;;8.96;100.00
20023;BME280;10172;42.054;24.546;2023-04-24T03:25:19;97949.00;;;8.57;100.00
20023;BME280;10172;42.054;24.546;2023-04-24T03:27:44;97956.06;;;8.97;100.00
20023;BME280;10172;42.054;24.546;2023-04-24T03:30:10;97972.38;;;8.91;100.00
20023;BME280;10172;42.054;24.546;2023-04-24T03:32:36;97964.09;;;9.60;100.00
20023;BME280;10172;42.054;24.546;2023-04-24T03:35:01;97971.13;;;9.74;100.00
20023;BME280;10172;42.054;24.546;2023-04-24T03:37:27;97968.56;;;9.47;100.00
20023;BME280;10172;42.054;24.546;2023-04-24T03:39:52;97968.34;;;9.62;100.00
20023;BME280;10172;42.054;24.546;2023-04-24T03:42:18;97955.63;;;9.80;100.00
20023;BME280;10172;42.054;24.546;2023-04-24T03:44:43;97948.09;;;8.97;100.00
20023;BME280;10172;42.054;24.546;2023-04-24T03:47:09;97953.38;;;9.87;100.00
20023;BME280;10172;42.054;24.546;2023-04-24T03:49:34;97942.97;;;10.22;100.00
20023;BME280;10172;42.054;24.546;2023-04-24T03:52:00;97948.44;;;10.91;100.00
20023;BME280;10172;42.054;24.546;2023-04-24T03:54:26;97957.19;;;11.28;100.00
20023;BME280;10172;42.054;24.546;2023-04-24T03:56:52;97961.78;;;11.26;100.00
20023;BME280;10172;42.054;24.546;2023-04-24T03:59:17;97958.06;;;11.39;100.00
20023;BME280;10172;42.054;24.546;2023-04-24T04:01:42;97969.16;;;11.68;100.00
20023;BME280;10172;42.054;24.546;2023-04-24T04:04:08;97974.03;;;11.74;100.00
20023;BME280;10172;42.054;24.546;2023-04-24T04:06:34;97979.53;;;11.60;100.00
20023;BME280;10172;42.054;24.546;2023-04-24T04:09:00;97967.91;;;10.32;100.00
20023;BME280;10172;42.054;24.546;2023-04-24T04:11:25;97981.03;;;10.58;100.00
20023;BME280;10172;42.054;24.546;2023-04-24T04:13:51;97995.31;;;10.45;100.00
20023;BME280;10172;42.054;24.546;2023-04-24T04:16:17;97991.03;;;10.67;100.00
20023;BME280;10172;42.054;24.546;2023-04-24T04:18:43;97979.22;;;10.59;100.00
20023;BME280;10172;42.054;24.546;2023-04-24T04:21:08;97988.06;;;11.30;100.00
20023;BME280;10172;42.054;24.546;2023-04-24T04:23:34;97975.44;;;11.56;100.00
20023;BME280;10172;42.054;24.546;2023-04-24T04:26:00;97990.28;;;11.82;100.00
20023;BME280;10172;42.054;24.546;2023-04-24T04:28:26;97986.78;;;11.93;100.00
20023;BME280;10172;42.054;24.546;2023-04-24T04:30:51;97987.78;;;12.36;100.00
20023;BME280;10172;42.054;24.546;2023-04-24T04:33:21;97998.06;;;12.41;100.00
20023;BME280;10172;42.054;24.546;2023-04-24T04:35:47;97994.06;;;12.57;100.00
20023;BME280;10172;42.054;24.546;2023-04-24T04:38:17;97981.25;;;12.51;100.00
20023;BME280;10172;42.054;24.546;2023-04-24T04:40:43;97976.97;;;12.49;100.00
20023;BME280;10172;42.054;24.546;2023-04-24T04:43:09;97979.56;;;12.93;100.00
20023;BME280;10172;42.054;24.546;2023-04-24T04:45:36;97977.78;;;12.83;100.00
20023;BME280;10172;42.054;24.546;2023-04-24T04:48:04;97988.53;;;12.92;100.00
20023;BME280;10172;42.054;24.546;2023-04-24T04:50:32;97973.72;;;13.10;100.00
20023;BME280;10172;42.054;24.546;2023-04-24T04:52:58;97978.00;;;13.34;100.00
20023;BME280;10172;42.054;24.546;2023-04-24T04:55:23;97982.38;;;13.35;100.00
20023;BME280;10172;42.054;24.546;2023-04-24T04:57:48;97981.31;;;13.47;100.00
20023;BME280;10172;42.054;24.546;2023-04-24T05:00:14;97977.84;;;13.67;100.00
20023;BME280;10172;42.054;24.546;2023-04-24T05:02:40;97984.72;;;13.90;100.00
20023;BME280;10172;42.054;24.546;2023-04-24T05:05:07;97974.84;;;13.81;100.00
20023;BME280;10172;42.054;24.546;2023-04-24T05:07:32;97961.09;;;13.95;100.00
20023;BME280;10172;42.054;24.546;2023-04-24T05:09:58;97956.88;;;13.93;100.00
20023;BME280;10172;42.054;24.546;2023-04-24T05:12:24;97946.47;;;13.48;100.00
20023;BME280;10172;42.054;24.546;2023-04-24T05:14:49;97949.31;;;12.61;100.00
20023;BME280;10172;42.054;24.546;2023-04-24T05:17:15;97952.47;;;12.55;100.00
20023;BME280;10172;42.054;24.546;2023-04-24T05:19:41;97951.69;;;12.86;100.00
20023;BME280;10172;42.054;24.546;2023-04-24T05:22:07;97946.81;;;12.91;100.00
20023;BME280;10172;42.054;24.546;2023-04-24T05:24:33;97942.09;;;13.27;100.00
20023;BME280;10172;42.054;24.546;2023-04-24T05:26:59;97945.69;;;13.37;100.00
20023;BME280;10172;42.054;24.546;2023-04-24T05:29:25;97953.75;;;13.46;100.00
20023;BME280;10172;42.054;24.546;2023-04-24T05:31:51;97952.47;;;13.61;100.00
20023;BME280;10172;42.054;24.546;2023-04-24T05:34:17;97949.59;;;13.53;100.00
20023;BME280;10172;42.054;24.546;2023-04-24T05:36:43;97946.00;;;13.64;100.00
20023;BME280;10172;42.054;24.546;2023-04-24T05:39:08;97947.63;;;13.55;100.00
20023;BME280;10172;42.054;24.546;2023-04-24T05:41:34;97934.34;;;13.24;100.00
20023;BME280;10172;42.054;24.546;2023-04-24T05:44:00;97954.81;;;13.55;100.00
20023;BME280;10172;42.054;24.546;2023-04-24T05:46:25;97972.44;;;13.26;100.00
20023;BME280;10172;42.054;24.546;2023-04-24T05:48:51;97976.34;;;13.22;100.00
20023;BME280;10172;42.054;24.546;2023-04-24T05:51:16;97973.50;;;12.91;100.00
20023;BME280;10172;42.054;24.546;2023-04-24T05:53:41;97980.03;;;12.22;100.00
20023;BME280;10172;42.054;24.546;2023-04-24T05:56:07;97967.28;;;11.12;100.00
20023;BME280;10172;42.054;24.546;2023-04-24T05:58:32;97971.03;;;10.62;100.00
20023;BME280;10172;42.054;24.546;2023-04-24T06:00:58;97972.56;;;11.35;100.00
20023;BME280;10172;42.054;24.546;2023-04-24T06:03:26;97983.03;;;11.95;100.00
20023;BME280;10172;42.054;24.546;2023-04-24T06:05:52;97972.25;;;11.40;100.00
20023;BME280;10172;42.054;24.546;2023-04-24T06:08:17;97966.19;;;11.49;100.00
20023;BME280;10172;42.054;24.546;2023-04-24T06:10:43;97988.78;;;12.24;100.00
20023;BME280;10172;42.054;24.546;2023-04-24T06:13:08;97990.81;;;12.65;100.00
20023;BME280;10172;42.054;24.546;2023-04-24T06:15:34;97986.44;;;12.31;100.00
20023;BME280;10172;42.054;24.546;2023-04-24T06:17:59;97971.78;;;12.36;100.00
20023;BME280;10172;42.054;24.546;2023-04-24T06:20:25;97979.78;;;13.01;100.00
20023;BME280;10172;42.054;24.546;2023-04-24T06:22:50;97978.25;;;13.31;100.00
20023;BME280;10172;42.054;24.546;2023-04-24T06:25:16;97976.50;;;11.99;100.00
20023;BME280;10172;42.054;24.546;2023-04-24T06:27:41;97980.59;;;11.81;100.00
20023;BME280;10172;42.054;24.546;2023-04-24T06:30:07;97974.81;;;12.54;100.00
20023;BME280;10172;42.054;24.546;2023-04-24T06:32:33;97976.59;;;13.50;100.00
20023;BME280;10172;42.054;24.546;2023-04-24T06:34:58;97964.78;;;14.24;100.00
20023;BME280;10172;42.054;24.546;2023-04-24T06:37:24;97973.94;;;14.01;100.00
20023;BME280;10172;42.054;24.546;2023-04-24T06:39:50;97972.22;;;13.17;100.00
20023;BME280;10172;42.054;24.546;2023-04-24T06:42:15;97986.31;;;11.99;100.00
20023;BME280;10172;42.054;24.546;2023-04-24T06:44:41;97956.00;;;12.44;100.00
20023;BME280;10172;42.054;24.546;2023-04-24T06:47:07;97966.69;;;13.09;100.00
20023;BME280;10172;42.054;24.546;2023-04-24T06:49:35;97968.09;;;13.25;100.00
20023;BME280;10172;42.054;24.546;2023-04-24T06:52:00;97988.47;;;13.26;100.00
20023;BME280;10172;42.054;24.546;2023-04-24T06:54:26;97982.06;;;13.69;100.00
20023;BME280;10172;42.054;24.546;2023-04-24T06:56:52;97972.78;;;12.89;100.00
20023;BME280;10172;42.054;24.546;2023-04-24T06:59:17;97986.63;;;13.99;100.00
20023;BME280;10172;42.054;24.546;2023-04-24T07:01:43;97973.75;;;13.93;100.00
20023;BME280;10172;42.054;24.546;2023-04-24T07:04:08;97980.06;;;13.30;100.00
20023;BME280;10172;42.054;24.546;2023-04-24T07:06:34;97978.66;;;13.88;100.00
20023;BME280;10172;42.054;24.546;2023-04-24T07:09:01;97991.16;;;13.46;100.00
20023;BME280;10172;42.054;24.546;2023-04-24T07:11:27;97995.34;;;14.22;100.00
20023;BME280;10172;42.054;24.546;2023-04-24T07:13:55;97986.31;;;14.23;98.15
20023;BME280;10172;42.054;24.546;2023-04-24T07:16:20;97992.16;;;13.45;100.00
20023;BME280;10172;42.054;24.546;2023-04-24T07:18:46;97984.00;;;14.79;100.00
20023;BME280;10172;42.054;24.546;2023-04-24T07:21:11;97980.28;;;15.39;93.80
20023;BME280;10172;42.054;24.546;2023-04-24T07:23:37;97992.56;;;13.82;99.88
20023;BME280;10172;42.054;24.546;2023-04-24T07:26:02;97979.94;;;14.14;100.00
20023;BME280;10172;42.054;24.546;2023-04-24T07:28:28;97993.38;;;14.94;99.56
20023;BME280;10172;42.054;24.546;2023-04-24T07:30:57;97988.06;;;15.71;93.59
20023;BME280;10172;42.054;24.546;2023-04-24T07:33:22;97995.41;;;16.34;89.76
20023;BME280;10172;42.054;24.546;2023-04-24T07:35:48;97986.38;;;17.17;84.22
20023;BME280;10172;42.054;24.546;2023-04-24T07:38:13;97994.56;;;16.34;84.29
20023;BME280;10172;42.054;24.546;2023-04-24T07:40:39;97987.72;;;16.86;82.60
20023;BME280;10172;42.054;24.546;2023-04-24T07:43:04;97988.22;;;16.99;82.34
20023;BME280;10172;42.054;24.546;2023-04-24T07:45:30;97982.03;;;17.16;79.85
20023;BME280;10172;42.054;24.546;2023-04-24T07:47:56;97986.88;;;17.65;79.45
20023;BME280;10172;42.054;24.546;2023-04-24T07:50:25;97978.56;;;17.76;79.88
20023;BME280;10172;42.054;24.546;2023-04-24T07:52:50;97986.88;;;17.65;77.68
20023;BME280;10172;42.054;24.546;2023-04-24T07:55:16;97977.88;;;18.18;76.08
20023;BME280;10172;42.054;24.546;2023-04-24T07:57:41;97970.44;;;17.68;79.08
20023;BME280;10172;42.054;24.546;2023-04-24T08:00:08;97971.06;;;18.06;77.14
20023;BME280;10172;42.054;24.546;2023-04-24T08:02:34;97958.50;;;18.40;77.40
20023;BME280;10172;42.054;24.546;2023-04-24T08:05:00;97972.09;;;18.64;73.46
20023;BME280;10172;42.054;24.546;2023-04-24T08:07:25;97958.44;;;17.80;77.70
20023;BME280;10172;42.054;24.546;2023-04-24T08:09:50;97964.31;;;18.27;75.89
20023;BME280;10172;42.054;24.546;2023-04-24T08:12:16;97957.53;;;17.72;77.75
20023;BME280;10172;42.054;24.546;2023-04-24T08:14:41;97961.97;;;18.07;77.91
20023;BME280;10172;42.054;24.546;2023-04-24T08:17:07;97961.47;;;18.63;77.11
20023;BME280;10172;42.054;24.546;2023-04-24T08:19:32;97959.47;;;19.15;72.87
20023;BME280;10172;42.054;24.546;2023-04-24T08:21:58;97954.25;;;19.13;73.38
20023;BME280;10172;42.054;24.546;2023-04-24T08:24:23;97955.72;;;18.91;74.59
20023;BME280;10172;42.054;24.546;2023-04-24T08:26:49;97950.66;;;16.25;86.43
20023;BME280;10172;42.054;24.546;2023-04-24T08:29:19;97951.09;;;16.85;86.09
20023;BME280;10172;42.054;24.546;2023-04-24T08:31:45;97944.66;;;16.78;86.90
20023;BME280;10172;42.054;24.546;2023-04-24T08:34:10;97944.00;;;16.66;85.78
20023;BME280;10172;42.054;24.546;2023-04-24T08:36:37;97936.50;;;17.32;85.99
20023;BME280;10172;42.054;24.546;2023-04-24T08:39:03;97940.28;;;17.82;81.58
20023;BME280;10172;42.054;24.546;2023-04-24T08:41:29;97931.47;;;18.99;77.62
20023;BME280;10172;42.054;24.546;2023-04-24T08:43:56;97932.72;;;18.71;75.19
20023;BME280;10172;42.054;24.546;2023-04-24T08:46:24;97933.69;;;19.20;76.23
20023;BME280;10172;42.054;24.546;2023-04-24T08:48:50;97930.44;;;19.00;75.01
20023;BME280;10172;42.054;24.546;2023-04-24T08:51:17;97917.94;;;18.83;76.68
20023;BME280;10172;42.054;24.546;2023-04-24T08:53:43;97926.44;;;19.13;75.38
20023;BME280;10172;42.054;24.546;2023-04-24T08:56:09;97929.88;;;19.79;72.52
20023;BME280;10172;42.054;24.546;2023-04-24T08:58:36;97936.91;;;20.12;70.39
20023;BME280;10172;42.054;24.546;2023-04-24T09:01:02;97920.41;;;19.35;72.30
20023;BME280;10172;42.054;24.546;2023-04-24T09:03:28;97918.59;;;19.51;74.00
20023;BME280;10172;42.054;24.546;2023-04-24T09:05:55;97910.06;;;17.10;83.52
20023;BME280;10172;42.054;24.546;2023-04-24T09:08:24;97900.59;;;17.41;86.53
20023;BME280;10172;42.054;24.546;2023-04-24T09:10:50;97904.31;;;17.83;80.81
20023;BME280;10172;42.054;24.546;2023-04-24T09:13:15;97895.00;;;18.29;82.78
20023;BME280;10172;42.054;24.546;2023-04-24T09:15:42;97904.25;;;19.51;76.03
20023;BME280;10172;42.054;24.546;2023-04-24T09:18:07;97893.22;;;20.09;73.31
20023;BME280;10172;42.054;24.546;2023-04-24T09:20:33;97897.41;;;20.19;71.98
20023;BME280;10172;42.054;24.546;2023-04-24T09:23:01;97896.84;;;20.48;72.41
20023;BME280;10172;42.054;24.546;2023-04-24T09:25:33;97895.16;;;20.86;69.92
20023;BME280;10172;42.054;24.546;2023-04-24T09:28:03;97888.09;;;20.77;69.61
20023;BME280;10172;42.054;24.546;2023-04-24T09:30:30;97897.06;;;20.31;70.09
20023;BME280;10172;42.054;24.546;2023-04-24T09:35:50;97879.16;;;20.68;68.53
20023;BME280;10172;42.054;24.546;2023-04-24T09:38:16;97876.38;;;20.84;68.26
20023;BME280;10172;42.054;24.546;2023-04-24T09:40:41;97882.16;;;21.12;67.99
20023;BME280;10172;42.054;24.546;2023-04-24T09:43:10;97866.53;;;21.22;66.63
20023;BME280;10172;42.054;24.546;2023-04-24T09:45:39;97877.97;;;20.71;69.34
20023;BME280;10172;42.054;24.546;2023-04-24T09:48:08;97876.97;;;21.03;68.56
20023;BME280;10172;42.054;24.546;2023-04-24T09:50:35;97857.59;;;20.91;68.10
20023;BME280;10172;42.054;24.546;2023-04-24T09:53:05;97855.00;;;21.28;68.32
20023;BME280;10172;42.054;24.546;2023-04-24T09:55:32;97851.34;;;20.91;68.16
20023;BME280;10172;42.054;24.546;2023-04-24T09:57:59;97840.91;;;20.10;68.74
20023;BME280;10172;42.054;24.546;2023-04-24T10:00:32;97830.06;;;20.26;70.80
20023;BME280;10172;42.054;24.546;2023-04-24T10:03:04;97827.66;;;20.70;69.47
20023;BME280;10172;42.054;24.546;2023-04-24T10:05:32;97829.44;;;21.31;67.17
20023;BME280;10172;42.054;24.546;2023-04-24T10:08:07;97837.09;;;21.65;64.23
20023;BME280;10172;42.054;24.546;2023-04-24T10:10:37;97839.31;;;21.61;62.39
20023;BME280;10172;42.054;24.546;2023-04-24T10:13:04;97838.28;;;21.99;62.87
20023;BME280;10172;42.054;24.546;2023-04-24T10:15:30;97836.88;;;22.18;60.73
20023;BME280;10172;42.054;24.546;2023-04-24T10:17:57;97814.25;;;22.26;61.47
20023;BME280;10172;42.054;24.546;2023-04-24T10:20:26;97818.28;;;22.30;61.58
20023;BME280;10172;42.054;24.546;2023-04-24T10:22:53;97803.69;;;22.45;61.69
20023;BME280;10172;42.054;24.546;2023-04-24T10:36:16;97793.53;;;22.33;60.53
20023;BME280;10172;42.054;24.546;2023-04-24T10:38:43;97781.13;;;20.29;65.92
20023;BME280;10172;42.054;24.546;2023-04-24T10:41:12;97787.91;;;21.01;65.85
20023;BME280;10172;42.054;24.546;2023-04-24T10:44:03;97793.59;;;21.66;63.63
20023;BME280;10172;42.054;24.546;2023-04-24T10:46:29;97778.59;;;21.78;61.94
20023;BME280;10172;42.054;24.546;2023-04-24T10:48:56;97780.44;;;21.78;63.25
20023;BME280;10172;42.054;24.546;2023-04-24T10:51:23;97794.88;;;21.56;63.72
20023;BME280;10172;42.054;24.546;2023-04-24T10:53:52;97792.84;;;20.98;64.77
20023;BME280;10172;42.054;24.546;2023-04-24T10:56:18;97797.03;;;21.23;63.81
20023;BME280;10172;42.054;24.546;2023-04-24T10:58:49;97810.25;;;20.95;64.96
20023;BME280;10172;42.054;24.546;2023-04-24T11:01:28;97803.72;;;21.12;64.67
20023;BME280;10172;42.054;24.546;2023-04-24T11:03:59;97805.91;;;21.69;62.44
20023;BME280;10172;42.054;24.546;2023-04-24T11:06:36;97807.94;;;21.89;62.05
20023;BME280;10172;42.054;24.546;2023-04-24T11:09:09;97795.25;;;21.53;62.97
20023;BME280;10172;42.054;24.546;2023-04-24T11:11:38;97797.63;;;21.85;64.04
20023;BME280;10172;42.054;24.546;2023-04-24T11:14:08;97782.75;;;22.39;61.84
20023;BME280;10172;42.054;24.546;2023-04-24T11:16:37;97776.22;;;22.48;60.80
20023;BME280;10172;42.054;24.546;2023-04-24T11:19:21;97776.91;;;22.21;62.02
20023;BME280;10172;42.054;24.546;2023-04-24T11:21:58;97769.81;;;22.20;62.93
20023;BME280;10172;42.054;24.546;2023-04-24T11:27:38;97745.22;;;21.34;63.57
20023;BME280;10172;42.054;24.546;2023-04-24T11:29:49;97739.53;;;22.67;62.67
20023;BME280;10172;42.054;24.546;2023-04-24T11:34:58;97725.94;;;22.46;63.06
20023;BME280;10172;42.054;24.546;2023-04-24T11:37:47;97720.97;;;22.49;62.84
20023;BME280;10172;42.054;24.546;2023-04-24T11:40:17;97706.81;;;23.39;61.17
20023;BME280;10172;42.054;24.546;2023-04-24T11:42:49;97706.22;;;22.94;62.12
20023;BME280;10172;42.054;24.546;2023-04-24T11:45:34;97697.22;;;22.51;64.16
20023;BME280;10172;42.054;24.546;2023-04-24T11:47:59;97690.13;;;22.50;63.42
20023;BME280;10172;42.054;24.546;2023-04-24T11:50:26;97698.25;;;22.65;62.50
20023;BME280;10172;42.054;24.546;2023-04-24T11:52:53;97683.22;;;22.48;64.02
20023;BME280;10172;42.054;24.546;2023-04-24T11:57:46;97681.53;;;23.10;62.07
20023;BME280;10172;42.054;24.546;2023-04-24T12:00:22;97674.56;;;23.29;61.26
20023;BME280;10172;42.054;24.546;2023-04-24T12:02:49;97680.38;;;23.26;61.10
20023;BME280;10172;42.054;24.546;2023-04-24T12:05:25;97672.47;;;22.76;62.40
20023;BME280;10172;42.054;24.546;2023-04-24T12:07:52;97665.81;;;23.27;61.46
20023;BME280;10172;42.054;24.546;2023-04-24T12:10:24;97662.84;;;23.22;61.73
20023;BME280;10172;42.054;24.546;2023-04-24T12:12:50;97657.22;;;22.53;65.72
20023;BME280;10172;42.054;24.546;2023-04-24T12:15:18;97651.53;;;22.91;64.37
20023;BME280;10172;42.054;24.546;2023-04-24T12:17:44;97649.22;;;23.15;63.26
20023;BME280;10172;42.054;24.546;2023-04-24T12:20:10;97649.06;;;22.96;62.50
20023;BME280;10172;42.054;24.546;2023-04-24T12:25:10;97632.75;;;23.45;63.99
20023;BME280;10172;42.054;24.546;2023-04-24T12:27:36;97638.16;;;23.86;61.96
20023;BME280;10172;42.054;24.546;2023-04-24T12:30:04;97626.91;;;23.89;61.68
20023;BME280;10172;42.054;24.546;2023-04-24T12:32:30;97629.03;;;24.00;60.12
20023;BME280;10172;42.054;24.546;2023-04-24T12:34:56;97625.97;;;23.68;61.72
20023;BME280;10172;42.054;24.546;2023-04-24T12:37:25;97609.94;;;23.80;62.73
20023;BME280;10172;42.054;24.546;2023-04-24T12:40:07;97608.16;;;24.07;61.56
20023;BME280;10172;42.054;24.546;2023-04-24T12:42:34;97609.81;;;24.08;61.34
20023;BME280;10172;42.054;24.546;2023-04-24T12:45:05;97604.88;;;23.36;61.66
20023;BME280;10172;42.054;24.546;2023-04-24T12:47:32;97603.34;;;24.02;61.24
20023;BME280;10172;42.054;24.546;2023-04-24T12:49:59;97599.44;;;24.31;61.15
20023;BME280;10172;42.054;24.546;2023-04-24T12:52:26;97580.84;;;24.28;60.88
20023;BME280;10172;42.054;24.546;2023-04-24T12:54:57;97587.13;;;24.28;61.27
20023;BME280;10172;42.054;24.546;2023-04-24T12:57:24;97585.25;;;24.42;58.40
20023;BME280;10172;42.054;24.546;2023-04-24T12:59:51;97579.00;;;24.61;58.74
20023;BME280;10172;42.054;24.546;2023-04-24T13:02:17;97581.28;;;24.64;58.97
20023;BME280;10172;42.054;24.546;2023-04-24T13:04:49;97589.03;;;24.41;60.29
20023;BME280;10172;42.054;24.546;2023-04-24T13:07:15;97584.75;;;24.06;61.73
20023;BME280;10172;42.054;24.546;2023-04-24T13:09:42;97567.59;;;23.99;61.05